Time,TemperatureF,DewpointF,PressureIn,WindDirection,WindDirectionDegrees,WindSpeedMPH,WindSpeedGustMPH,Humidity,HourlyPrecipIn,Conditions,Clouds,dailyrainin,SoftwareType,DateUTC
2013-03-11 00:01:00,42.8,27.0,30.42,SSW,200,0.0,-999.0,54,-99.99,,,0.00,weatherlink.com 1.10,2013-03-11 07:01:00,
2013-03-11 00:16:00,42.9,28.0,30.42,SSW,200,0.0,-999.0,55,-99.99,,,0.00,weatherlink.com 1.10,2013-03-11 07:16:00,
2013-03-11 00:31:00,42.9,27.0,30.43,SSW,200,0.0,-999.0,54,-99.99,,,0.00,weatherlink.com 1.10,2013-03-11 07:31:00,
2013-03-11 00:46:00,42.9,27.0,30.43,SSW,200,0.0,-999.0,54,-99.99,,,0.00,weatherlink.com 1.10,2013-03-11 07:46:00,
2013-03-11 01:01:00,43.1,27.0,30.43,SSW,200,0.0,-999.0,54,-99.99,,,0.00,weatherlink.com 1.10,2013-03-11 08:01:00,
2013-03-11 01:16:00,43.1,27.0,30.43,SSW,199,0.0,-999.0,54,-99.99,,,0.00,weatherlink.com 1.10,2013-03-11 08:16:00,
2013-03-11 01:31:00,43.2,27.0,30.42,SSW,199,0.0,-999.0,54,-99.99,,,0.00,weatherlink.com 1.10,2013-03-11 08:31:00,
2013-03-11 01:46:00,43.1,27.0,30.42,SSW,199,0.0,-999.0,54,-99.99,,,0.00,weatherlink.com 1.10,2013-03-11 08:46:00,
2013-03-11 02:01:00,43.0,27.0,30.42,SSW,199,0.0,-999.0,54,-99.99,,,0.00,weatherlink.com 1.10,2013-03-11 09:01:00,
2013-03-11 02:16:00,42.9,27.0,30.43,SSW,199,0.0,-999.0,54,-99.99,,,0.00,weatherlink.com 1.10,2013-03-11 09:16:00,
2013-03-11 02:31:00,42.9,27.0,30.43,SSW,199,0.0,-999.0,54,-99.99,,,0.00,weatherlink.com 1.10,2013-03-11 09:31:00,
2013-03-11 02:46:00,43.0,27.0,30.43,SSW,199,0.0,-999.0,54,-99.99,,,0.00,weatherlink.com 1.10,2013-03-11 09:46:00,
2013-03-11 03:01:00,42.9,27.0,30.43,SSW,199,0.0,-999.0,54,-99.99,,,0.00,weatherlink.com 1.10,2013-03-11 10:01:00,
2013-03-11 03:16:00,42.9,27.0,30.43,SSW,199,0.0,-999.0,54,-99.99,,,0.00,weatherlink.com 1.10,2013-03-11 10:16:00,
2013-03-11 03:31:00,42.9,27.0,30.42,SSW,199,0.0,-999.0,54,-99.99,,,0.00,weatherlink.com 1.10,2013-03-11 10:31:00,
2013-03-11 03:46:00,43.0,27.0,30.41,SSW,199,0.0,-999.0,54,-99.99,,,0.00,weatherlink.com 1.10,2013-03-11 10:46:00,
2013-03-11 04:01:00,43.0,27.0,30.41,SSW,199,0.0,-999.0,54,-99.99,,,0.00,weatherlink.com 1.10,2013-03-11 11:01:00,
2013-03-11 04:16:00,43.0,27.0,30.41,SSW,199,0.0,-999.0,54,-99.99,,,0.00,weatherlink.com 1.10,2013-03-11 11:16:00,
2013-03-11 04:31:00,43.0,27.0,30.40,SSW,199,0.0,-999.0,54,-99.99,,,0.00,weatherlink.com 1.10,2013-03-11 11:31:00,
2013-03-11 04:46:00,43.0,27.0,30.41,SSW,199,0.0,-999.0,54,-99.99,,,0.00,weatherlink.com 1.10,2013-03-11 11:46:00,
2013-03-11 05:01:00,43.0,27.0,30.40,SSW,199,0.0,-999.0,54,-99.99,,,0.00,weatherlink.com 1.10,2013-03-11 12:01:00,
2013-03-11 05:31:00,42.9,27.0,30.39,SSW,199,0.0,-999.0,54,-99.99,,,0.00,weatherlink.com 1.10,2013-03-11 12:31:00,
2013-03-11 05:46:00,42.7,27.0,30.39,SSW,199,0.0,-999.0,54,-99.99,,,0.00,weatherlink.com 1.10,2013-03-11 12:46:00,
2013-03-11 06:01:00,42.7,27.0,30.39,SSW,199,0.0,-999.0,54,-99.99,,,0.00,weatherlink.com 1.10,2013-03-11 13:01:00,
2013-03-11 06:46:00,42.7,27.0,30.39,SSW,199,0.0,-999.0,54,-99.99,,,0.00,weatherlink.com 1.10,2013-03-11 13:46:00,
2013-03-11 07:01:00,42.7,27.0,30.39,SSW,199,0.0,-999.0,54,-99.99,,,0.00,weatherlink.com 1.10,2013-03-11 14:01:00,
2013-03-11 07:31:00,42.7,27.0,30.38,SSW,199,0.0,-999.0,54,-99.99,,,0.00,weatherlink.com 1.10,2013-03-11 14:31:00,
2013-03-11 07:46:00,42.8,27.0,30.38,SSW,199,0.0,-999.0,54,-99.99,,,0.00,weatherlink.com 1.10,2013-03-11 14:46:00,
2013-03-11 08:01:00,42.9,27.0,30.38,SSW,199,0.0,-999.0,53,-99.99,,,0.00,weatherlink.com 1.10,2013-03-11 15:01:00,
2013-03-11 08:16:00,43.1,27.0,30.38,SSW,199,0.0,-999.0,53,-99.99,,,0.00,weatherlink.com 1.10,2013-03-11 15:16:00,
2013-03-11 08:31:00,43.3,27.0,30.38,SSW,199,0.0,-999.0,53,-99.99,,,0.00,weatherlink.com 1.10,2013-03-11 15:31:00,
2013-03-11 08:46:00,43.4,27.0,30.38,SSW,199,0.0,-999.0,53,-99.99,,,0.00,weatherlink.com 1.10,2013-03-11 15:46:00,
2013-03-11 09:01:00,43.6,27.0,30.38,SSW,199,0.0,-999.0,53,-99.99,,,0.00,weatherlink.com 1.10,2013-03-11 16:01:00,
2013-03-11 09:16:00,43.7,27.0,30.38,SSW,199,0.0,-999.0,53,-99.99,,,0.00,weatherlink.com 1.10,2013-03-11 16:16:00,
2013-03-11 09:31:00,44.1,28.0,30.38,SSW,199,0.0,-999.0,53,-99.99,,,0.00,weatherlink.com 1.10,2013-03-11 16:31:00,
2013-03-11 09:46:00,44.4,28.0,30.39,SSW,199,0.0,-999.0,53,-99.99,,,0.00,weatherlink.com 1.10,2013-03-11 16:46:00,
2013-03-11 10:01:00,45.0,28.0,30.38,SSW,199,0.0,-999.0,52,-99.99,,,0.00,weatherlink.com 1.10,2013-03-11 17:01:00,
2013-03-11 10:16:00,45.4,29.0,30.38,SSW,199,0.0,-999.0,52,-99.99,,,0.00,weatherlink.com 1.10,2013-03-11 17:16:00,
2013-03-11 10:31:00,45.9,29.0,30.38,SW,221,0.0,-999.0,52,-99.99,,,0.00,weatherlink.com 1.10,2013-03-11 17:31:00,
2013-03-11 10:46:00,46.1,29.0,30.38,SW,221,0.0,-999.0,52,-99.99,,,0.00,weatherlink.com 1.10,2013-03-11 17:46:00,
2013-03-11 11:01:00,46.6,30.0,30.37,NW,321,0.0,-999.0,52,-99.99,,,0.00,weatherlink.com 1.10,2013-03-11 18:01:00,
2013-03-11 11:16:00,47.2,30.0,30.37,NW,321,0.0,-999.0,52,-99.99,,,0.00,weatherlink.com 1.10,2013-03-11 18:16:00,
2013-03-11 11:46:00,48.5,31.0,30.36,SSW,194,0.0,-999.0,51,-99.99,,,0.00,weatherlink.com 1.10,2013-03-11 18:46:00,
2013-03-11 12:01:00,48.8,32.0,30.36,South,174,0.0,-999.0,52,-99.99,,,0.00,weatherlink.com 1.10,2013-03-11 19:01:00,
2013-03-11 12:46:00,49.7,36.0,30.34,WNW,283,0.0,-999.0,60,-99.99,,,0.00,weatherlink.com 1.10,2013-03-11 19:46:00,
2013-03-11 13:01:00,50.5,39.0,30.34,SE,144,0.0,-999.0,65,-99.99,,,0.00,weatherlink.com 1.10,2013-03-11 20:01:00,
2013-03-11 13:16:00,51.2,41.0,30.34,SE,144,0.0,-999.0,67,-99.99,,,0.00,weatherlink.com 1.10,2013-03-11 20:16:00,
2013-03-11 13:31:00,51.0,41.0,30.33,NW,319,0.0,-999.0,69,-99.99,,,0.00,weatherlink.com 1.10,2013-03-11 20:31:00,
2013-03-11 13:46:00,51.3,41.0,30.33,SW,217,0.0,-999.0,69,-99.99,,,0.00,weatherlink.com 1.10,2013-03-11 20:46:00,
2013-03-11 14:01:00,51.8,42.0,30.32,WNW,287,0.0,-999.0,70,-99.99,,,0.00,weatherlink.com 1.10,2013-03-11 21:01:00,
2013-03-11 14:16:00,51.5,42.0,30.32,WNW,284,1.0,-999.0,71,-99.99,,,0.00,weatherlink.com 1.10,2013-03-11 21:16:00,
2013-03-11 14:31:00,51.4,42.0,30.31,WSW,242,0.0,-999.0,70,-99.99,,,0.00,weatherlink.com 1.10,2013-03-11 21:31:00,
2013-03-11 14:46:00,51.2,42.0,30.31,WSW,244,0.0,-999.0,70,-99.99,,,0.00,weatherlink.com 1.10,2013-03-11 21:46:00,
2013-03-11 15:01:00,51.7,42.0,30.30,WSW,244,0.0,-999.0,69,-99.99,,,0.01,weatherlink.com 1.10,2013-03-11 22:01:00,
2013-03-11 15:31:00,51.1,41.0,30.30,WSW,240,0.0,-999.0,69,-99.99,,,0.02,weatherlink.com 1.10,2013-03-11 22:31:00,
2013-03-11 15:46:00,51.1,40.0,30.29,WSW,240,0.0,-999.0,66,-99.99,,,0.02,weatherlink.com 1.10,2013-03-11 22:46:00,
2013-03-11 16:01:00,50.7,38.0,30.29,East,92,0.0,-999.0,62,-99.99,,,0.02,weatherlink.com 1.10,2013-03-11 23:01:00,
2013-03-11 16:16:00,50.3,37.0,30.28,East,92,0.0,-999.0,61,-99.99,,,0.03,weatherlink.com 1.10,2013-03-11 23:16:00,
2013-03-11 16:31:00,50.4,37.0,30.27,East,92,0.0,-999.0,60,-99.99,,,0.03,weatherlink.com 1.10,2013-03-11 23:31:00,
2013-03-11 16:46:00,50.3,38.0,30.27,East,92,0.0,-999.0,62,-99.99,,,0.03,weatherlink.com 1.10,2013-03-11 23:46:00,
2013-03-11 17:01:00,50.6,37.0,30.26,East,92,0.0,-999.0,61,-99.99,,,0.03,weatherlink.com 1.10,2013-03-12 00:01:00,
2013-03-11 17:16:00,50.7,38.0,30.26,East,92,0.0,-999.0,62,-99.99,,,0.03,weatherlink.com 1.10,2013-03-12 00:16:00,
2013-03-11 17:31:00,50.4,39.0,30.25,East,92,0.0,-999.0,65,-99.99,,,0.03,weatherlink.com 1.10,2013-03-12 00:31:00,
2013-03-11 18:01:00,49.9,36.0,30.25,East,92,0.0,-999.0,60,-99.99,,,0.03,weatherlink.com 1.10,2013-03-12 01:01:00,
2013-03-11 18:16:00,49.4,35.0,30.25,East,92,0.0,-999.0,58,-99.99,,,0.04,weatherlink.com 1.10,2013-03-12 01:16:00,
2013-03-11 18:31:00,48.7,34.0,30.25,East,92,0.0,-999.0,57,-99.99,,,0.04,weatherlink.com 1.10,2013-03-12 01:31:00,
2013-03-11 18:46:00,48.5,33.0,30.25,East,92,0.0,-999.0,56,-99.99,,,0.05,weatherlink.com 1.10,2013-03-12 01:46:00,
2013-03-11 19:01:00,48.3,33.0,30.25,East,92,2.0,-999.0,55,-99.99,,,0.05,weatherlink.com 1.10,2013-03-12 02:01:00,
2013-03-11 19:16:00,48.2,32.0,30.24,East,91,0.0,-999.0,54,-99.99,,,0.05,weatherlink.com 1.10,2013-03-12 02:16:00,
2013-03-11 19:31:00,48.1,31.0,30.24,East,90,0.0,-999.0,53,-99.99,,,0.05,weatherlink.com 1.10,2013-03-12 02:31:00,
2013-03-11 19:46:00,48.1,31.0,30.24,ENE,70,0.0,-999.0,53,-99.99,,,0.05,weatherlink.com 1.10,2013-03-12 02:46:00,
2013-03-11 20:01:00,48.1,31.0,30.23,ENE,70,0.0,-999.0,53,-99.99,,,0.05,weatherlink.com 1.10,2013-03-12 03:01:00,
2013-03-11 20:16:00,48.1,31.0,30.23,ENE,62,0.0,-999.0,52,-99.99,,,0.05,weatherlink.com 1.10,2013-03-12 03:16:00,
2013-03-11 20:31:00,48.0,31.0,30.23,ENE,62,0.0,-999.0,52,-99.99,,,0.05,weatherlink.com 1.10,2013-03-12 03:31:00,
2013-03-11 21:01:00,48.0,31.0,30.22,ENE,62,0.0,-999.0,52,-99.99,,,0.05,weatherlink.com 1.10,2013-03-12 04:01:00,
2013-03-11 21:16:00,48.0,31.0,30.22,ENE,62,0.0,-999.0,52,-99.99,,,0.05,weatherlink.com 1.10,2013-03-12 04:16:00,
2013-03-11 21:31:00,47.9,30.0,30.23,ENE,62,0.0,-999.0,51,-99.99,,,0.05,weatherlink.com 1.10,2013-03-12 04:31:00,
2013-03-11 21:46:00,47.8,30.0,30.23,ENE,62,0.0,-999.0,51,-99.99,,,0.05,weatherlink.com 1.10,2013-03-12 04:46:00,
2013-03-11 22:01:00,47.8,30.0,30.23,ENE,62,0.0,-999.0,51,-99.99,,,0.06,weatherlink.com 1.10,2013-03-12 05:01:00,
2013-03-11 22:16:00,47.7,30.0,30.23,ENE,62,0.0,-999.0,51,-99.99,,,0.06,weatherlink.com 1.10,2013-03-12 05:16:00,
2013-03-11 22:31:00,47.9,30.0,30.23,ENE,62,0.0,-999.0,51,-99.99,,,0.06,weatherlink.com 1.10,2013-03-12 05:31:00,
2013-03-11 22:46:00,47.8,30.0,30.22,ENE,62,0.0,-999.0,51,-99.99,,,0.06,weatherlink.com 1.10,2013-03-12 05:46:00,
2013-03-11 23:01:00,47.8,30.0,30.21,ENE,62,0.0,-999.0,51,-99.99,,,0.06,weatherlink.com 1.10,2013-03-12 06:01:00,
2013-03-11 23:16:00,47.8,30.0,30.21,ENE,62,0.0,-999.0,51,-99.99,,,0.06,weatherlink.com 1.10,2013-03-12 06:16:00,
2013-03-11 23:31:00,47.9,30.0,30.21,ENE,62,0.0,-999.0,51,-99.99,,,0.06,weatherlink.com 1.10,2013-03-12 06:31:00,
2013-03-11 23:46:00,47.8,30.0,30.21,ENE,62,0.0,-999.0,51,-99.99,,,0.06,weatherlink.com 1.10,2013-03-12 06:46:00,